sensor_id;sensor_type;location;lat;lon;timestamp;pressure;altitude;pressure_sealevel;temperature;humidity
59757;BME280;45631;51.962;5.974;2023-04-22T00:01:43;100718.94;;;8.36;100.00
59757;BME280;45631;51.962;5.974;2023-04-22T00:04:13;100719.16;;;8.31;100.00
59757;BME280;45631;51.962;5.974;2023-04-22T00:06:41;100722.22;;;8.23;100.00
59757;BME280;45631;51.962;5.974;2023-04-22T00:09:11;100717.16;;;8.20;100.00
59757;BME280;45631;51.962;5.974;2023-04-22T00:11:39;100722.16;;;8.25;100.00
59757;BME280;45631;51.962;5.974;2023-04-22T00:14:07;100710.59;;;8.13;100.00
59757;BME280;45631;51.962;5.974;2023-04-22T00:16:35;100706.09;;;8.15;100.00
59757;BME280;45631;51.962;5.974;2023-04-22T00:19:04;100713.47;;;8.08;100.00
59757;BME280;45631;51.962;5.974;2023-04-22T00:21:33;100711.44;;;8.13;100.00
59757;BME280;45631;51.962;5.974;2023-04-22T00:24:02;100712.63;;;8.08;100.00
59757;BME280;45631;51.962;5.974;2023-04-22T00:26:30;100716.75;;;8.12;100.00
59757;BME280;45631;51.962;5.974;2023-04-22T00:29:01;100710.38;;;8.02;100.00
59757;BME280;45631;51.962;5.974;2023-04-22T00:31:29;100712.47;;;7.95;100.00
59757;BME280;45631;51.962;5.974;2023-04-22T00:33:58;100707.25;;;7.95;100.00
59757;BME280;45631;51.962;5.974;2023-04-22T00:36:29;100709.44;;;7.87;100.00
59757;BME280;45631;51.962;5.974;2023-04-22T00:38:58;100714.00;;;7.83;100.00
59757;BME280;45631;51.962;5.974;2023-04-22T00:41:26;100703.94;;;7.75;100.00
59757;BME280;45631;51.962;5.974;2023-04-22T00:43:57;100703.84;;;7.77;100.00
59757;BME280;45631;51.962;5.974;2023-04-22T00:46:26;100702.00;;;7.79;100.00
59757;BME280;45631;51.962;5.974;2023-04-22T00:48:55;100703.03;;;7.76;100.00
59757;BME280;45631;51.962;5.974;2023-04-22T00:51:24;100693.75;;;7.71;100.00
59757;BME280;45631;51.962;5.974;2023-04-22T00:53:52;100690.34;;;7.69;100.00
59757;BME280;45631;51.962;5.974;2023-04-22T00:56:24;100691.31;;;7.68;100.00
59757;BME280;45631;51.962;5.974;2023-04-22T00:58:53;100691.22;;;7.69;100.00
59757;BME280;45631;51.962;5.974;2023-04-22T01:01:22;100695.59;;;7.69;100.00
59757;BME280;45631;51.962;5.974;2023-04-22T01:03:51;100698.06;;;7.72;100.00
59757;BME280;45631;51.962;5.974;2023-04-22T01:06:19;100694.44;;;7.74;100.00
59757;BME280;45631;51.962;5.974;2023-04-22T01:08:49;100698.81;;;7.74;100.00
59757;BME280;45631;51.962;5.974;2023-04-22T01:11:19;100693.41;;;7.61;100.00
59757;BME280;45631;51.962;5.974;2023-04-22T01:13:50;100693.41;;;7.61;100.00
59757;BME280;45631;51.962;5.974;2023-04-22T01:16:19;100696.69;;;7.65;100.00
59757;BME280;45631;51.962;5.974;2023-04-22T01:18:47;100692.72;;;7.57;100.00
59757;BME280;45631;51.962;5.974;2023-04-22T01:21:16;100687.59;;;7.56;100.00
59757;BME280;45631;51.962;5.974;2023-04-22T01:23:47;100688.50;;;7.55;100.00
59757;BME280;45631;51.962;5.974;2023-04-22T01:26:18;100687.50;;;7.57;100.00
59757;BME280;45631;51.962;5.974;2023-04-22T01:28:46;100685.22;;;7.51;100.00
59757;BME280;45631;51.962;5.974;2023-04-22T01:31:15;100686.47;;;7.44;100.00
59757;BME280;45631;51.962;5.974;2023-04-22T01:33:43;100685.38;;;7.32;100.00
59757;BME280;45631;51.962;5.974;2023-04-22T01:36:12;100679.13;;;7.35;100.00
59757;BME280;45631;51.962;5.974;2023-04-22T01:38:40;100674.75;;;7.35;100.00
59757;BME280;45631;51.962;5.974;2023-04-22T01:41:13;100673.88;;;7.35;100.00
59757;BME280;45631;51.962;5.974;2023-04-22T01:43:41;100673.06;;;7.34;100.00
59757;BME280;45631;51.962;5.974;2023-04-22T01:46:10;100671.34;;;7.33;100.00
59757;BME280;45631;51.962;5.974;2023-04-22T01:48:39;100677.59;;;7.31;100.00
59757;BME280;45631;51.962;5.974;2023-04-22T01:51:07;100685.44;;;7.31;100.00
59757;BME280;45631;51.962;5.974;2023-04-22T01:53:35;100681.25;;;7.28;100.00
59757;BME280;45631;51.962;5.974;2023-04-22T01:56:03;100675.25;;;7.26;100.00
59757;BME280;45631;51.962;5.974;2023-04-22T01:58:33;100669.41;;;7.21;100.00
59757;BME280;45631;51.962;5.974;2023-04-22T02:01:01;100679.88;;;7.21;100.00
59757;BME280;45631;51.962;5.974;2023-04-22T02:03:29;100673.88;;;7.19;100.00
59757;BME280;45631;51.962;5.974;2023-04-22T02:06:01;100678.84;;;7.23;100.00
59757;BME280;45631;51.962;5.974;2023-04-22T02:08:29;100680.47;;;7.26;100.00
59757;BME280;45631;51.962;5.974;2023-04-22T02:10:57;100686.09;;;7.18;100.00
59757;BME280;45631;51.962;5.974;2023-04-22T02:13:35;100682.81;;;7.15;100.00
59757;BME280;45631;51.962;5.974;2023-04-22T02:16:04;100682.03;;;7.13;100.00
59757;BME280;45631;51.962;5.974;2023-04-22T02:18:32;100675.13;;;7.11;100.00
59757;BME280;45631;51.962;5.974;2023-04-22T02:21:00;100670.94;;;7.09;100.00
59757;BME280;45631;51.962;5.974;2023-04-22T02:23:29;100666.34;;;7.13;100.00
59757;BME280;45631;51.962;5.974;2023-04-22T02:25:57;100672.38;;;7.15;100.00
59757;BME280;45631;51.962;5.974;2023-04-22T02:28:25;100672.44;;;7.13;100.00
59757;BME280;45631;51.962;5.974;2023-04-22T02:30:55;100664.53;;;7.15;100.00
59757;BME280;45631;51.962;5.974;2023-04-22T02:33:23;100671.41;;;7.16;100.00
59757;BME280;45631;51.962;5.974;2023-04-22T02:35:51;100663.50;;;7.17;100.00
59757;BME280;45631;51.962;5.974;2023-04-22T02:38:19;100669.50;;;7.19;100.00
59757;BME280;45631;51.962;5.974;2023-04-22T02:40:47;100667.03;;;7.16;100.00
59757;BME280;45631;51.962;5.974;2023-04-22T02:43:15;100669.75;;;7.15;100.00
59757;BME280;45631;51.962;5.974;2023-04-22T02:45:43;100664.59;;;7.13;100.00
59757;BME280;45631;51.962;5.974;2023-04-22T02:48:13;100661.03;;;7.14;100.00
59757;BME280;45631;51.962;5.974;2023-04-22T02:50:42;100654.97;;;7.14;100.00
59757;BME280;45631;51.962;5.974;2023-04-22T02:53:12;100647.81;;;7.17;100.00
59757;BME280;45631;51.962;5.974;2023-04-22T02:55:41;100643.59;;;7.15;100.00
59757;BME280;45631;51.962;5.974;2023-04-22T02:58:09;100644.44;;;7.15;100.00
59757;BME280;45631;51.962;5.974;2023-04-22T03:00:37;100654.13;;;7.13;100.00
59757;BME280;45631;51.962;5.974;2023-04-22T03:03:05;100650.56;;;7.14;100.00
59757;BME280;45631;51.962;5.974;2023-04-22T03:05:35;100647.81;;;7.17;100.00
59757;BME280;45631;51.962;5.974;2023-04-22T03:08:03;100645.13;;;7.19;100.00
59757;BME280;45631;51.962;5.974;2023-04-22T03:10:32;100638.09;;;7.19;100.00
59757;BME280;45631;51.962;5.974;2023-04-22T03:13:00;100637.19;;;7.20;100.00
59757;BME280;45631;51.962;5.974;2023-04-22T03:15:28;100637.19;;;7.20;100.00
59757;BME280;45631;51.962;5.974;2023-04-22T03:17:56;100638.09;;;7.19;100.00
59757;BME280;45631;51.962;5.974;2023-04-22T03:20:24;100636.31;;;7.20;100.00
59757;BME280;45631;51.962;5.974;2023-04-22T03:22:54;100628.56;;;7.18;100.00
59757;BME280;45631;51.962;5.974;2023-04-22T03:25:21;100631.09;;;7.20;100.00
59757;BME280;45631;51.962;5.974;2023-04-22T03:27:50;100626.81;;;7.19;100.00
59757;BME280;45631;51.962;5.974;2023-04-22T03:30:18;100622.31;;;7.21;100.00
59757;BME280;45631;51.962;5.974;2023-04-22T03:32:48;100627.38;;;7.24;100.00
59757;BME280;45631;51.962;5.974;2023-04-22T03:35:17;100623.94;;;7.23;100.00
59757;BME280;45631;51.962;5.974;2023-04-22T03:37:45;100620.41;;;7.24;100.00
59757;BME280;45631;51.962;5.974;2023-04-22T03:40:14;100625.63;;;7.24;100.00
59757;BME280;45631;51.962;5.974;2023-04-22T03:42:43;100609.06;;;7.24;100.00
59757;BME280;45631;51.962;5.974;2023-04-22T03:45:11;100615.06;;;7.26;100.00
59757;BME280;45631;51.962;5.974;2023-04-22T03:47:39;100612.28;;;7.29;100.00
59757;BME280;45631;51.962;5.974;2023-04-22T03:50:07;100614.97;;;7.27;100.00
59757;BME280;45631;51.962;5.974;2023-04-22T03:52:36;100606.13;;;7.30;100.00
59757;BME280;45631;51.962;5.974;2023-04-22T03:55:04;100608.75;;;7.30;100.00
59757;BME280;45631;51.962;5.974;2023-04-22T03:57:34;100601.66;;;7.32;100.00
59757;BME280;45631;51.962;5.974;2023-04-22T04:00:03;100602.69;;;7.30;100.00
59757;BME280;45631;51.962;5.974;2023-04-22T04:02:31;100601.72;;;7.31;100.00
59757;BME280;45631;51.962;5.974;2023-04-22T04:04:59;100612.13;;;7.32;100.00
59757;BME280;45631;51.962;5.974;2023-04-22T04:07:28;100598.97;;;7.34;100.00
59757;BME280;45631;51.962;5.974;2023-04-22T04:09:56;100600.81;;;7.32;100.00
59757;BME280;45631;51.962;5.974;2023-04-22T04:12:24;100599.88;;;7.33;100.00
59757;BME280;45631;51.962;5.974;2023-04-22T04:14:53;100591.13;;;7.34;100.00
59757;BME280;45631;51.962;5.974;2023-04-22T04:17:21;100594.75;;;7.31;100.00
59757;BME280;45631;51.962;5.974;2023-04-22T04:19:52;100587.41;;;7.38;100.00
59757;BME280;45631;51.962;5.974;2023-04-22T04:22:21;100596.16;;;7.37;100.00
59757;BME280;45631;51.962;5.974;2023-04-22T04:24:49;100592.78;;;7.35;100.00
59757;BME280;45631;51.962;5.974;2023-04-22T04:27:18;100588.50;;;7.34;100.00
59757;BME280;45631;51.962;5.974;2023-04-22T04:29:46;100582.41;;;7.33;100.00
59757;BME280;45631;51.962;5.974;2023-04-22T04:32:16;100585.88;;;7.34;100.00
59757;BME280;45631;51.962;5.974;2023-04-22T04:34:44;100575.41;;;7.34;100.00
59757;BME280;45631;51.962;5.974;2023-04-22T04:37:13;100577.16;;;7.33;100.00
59757;BME280;45631;51.962;5.974;2023-04-22T04:39:42;100576.25;;;7.34;100.00
59757;BME280;45631;51.962;5.974;2023-04-22T04:42:10;100568.31;;;7.36;100.00
59757;BME280;45631;51.962;5.974;2023-04-22T04:44:40;100573.44;;;7.37;100.00
59757;BME280;45631;51.962;5.974;2023-04-22T04:47:08;100564.78;;;7.37;100.00
59757;BME280;45631;51.962;5.974;2023-04-22T04:49:40;100570.94;;;7.36;100.00
59757;BME280;45631;51.962;5.974;2023-04-22T04:52:09;100577.84;;;7.37;100.00
59757;BME280;45631;51.962;5.974;2023-04-22T04:54:37;100583.81;;;7.39;100.00
59757;BME280;45631;51.962;5.974;2023-04-22T04:57:05;100576.94;;;7.38;100.00
59757;BME280;45631;51.962;5.974;2023-04-22T04:59:35;100583.00;;;7.38;100.00
59757;BME280;45631;51.962;5.974;2023-04-22T05:02:04;100580.28;;;7.40;100.00
59757;BME280;45631;51.962;5.974;2023-04-22T05:04:32;100574.13;;;7.41;100.00
59757;BME280;45631;51.962;5.974;2023-04-22T05:07:02;100574.97;;;7.41;100.00
59757;BME280;45631;51.962;5.974;2023-04-22T05:09:31;100579.09;;;7.45;100.00
59757;BME280;45631;51.962;5.974;2023-04-22T05:12:03;100574.53;;;7.49;100.00
59757;BME280;45631;51.962;5.974;2023-04-22T05:14:31;100571.00;;;7.50;100.00
59757;BME280;45631;51.962;5.974;2023-04-22T05:17:00;100574.53;;;7.49;100.00
59757;BME280;45631;51.962;5.974;2023-04-22T05:19:28;100586.63;;;7.52;100.00
59757;BME280;45631;51.962;5.974;2023-04-22T05:21:56;100589.66;;;7.60;100.00
59757;BME280;45631;51.962;5.974;2023-04-22T05:24:26;100587.03;;;7.60;100.00
59757;BME280;45631;51.962;5.974;2023-04-22T05:26:54;100587.84;;;7.60;100.00
59757;BME280;45631;51.962;5.974;2023-04-22T05:29:23;100578.91;;;7.65;100.00
59757;BME280;45631;51.962;5.974;2023-04-22T05:31:51;100583.13;;;7.67;100.00
59757;BME280;45631;51.962;5.974;2023-04-22T05:34:19;100582.19;;;7.68;100.00
59757;BME280;45631;51.962;5.974;2023-04-22T05:36:47;100586.50;;;7.69;100.00
59757;BME280;45631;51.962;5.974;2023-04-22T05:39:18;100583.81;;;7.71;100.00
59757;BME280;45631;51.962;5.974;2023-04-22T05:41:47;100592.41;;;7.73;100.00
59757;BME280;45631;51.962;5.974;2023-04-22T05:44:15;100584.47;;;7.74;100.00
59757;BME280;45631;51.962;5.974;2023-04-22T05:46:44;100581.69;;;7.77;100.00
59757;BME280;45631;51.962;5.974;2023-04-22T05:49:12;100588.66;;;7.77;100.00
59757;BME280;45631;51.962;5.974;2023-04-22T05:51:40;100591.13;;;7.80;100.00
59757;BME280;45631;51.962;5.974;2023-04-22T05:54:09;100577.84;;;7.83;100.00
59757;BME280;45631;51.962;5.974;2023-04-22T05:56:37;100567.28;;;7.85;100.00
59757;BME280;45631;51.962;5.974;2023-04-22T05:59:06;100574.03;;;7.89;100.00
59757;BME280;45631;51.962;5.974;2023-04-22T06:01:35;100566.84;;;7.92;100.00
59757;BME280;45631;51.962;5.974;2023-04-22T06:04:03;100572.66;;;7.98;100.00
59757;BME280;45631;51.962;5.974;2023-04-22T06:06:32;100565.47;;;8.01;100.00
59757;BME280;45631;51.962;5.974;2023-04-22T06:09:03;100566.97;;;8.05;100.00
59757;BME280;45631;51.962;5.974;2023-04-22T06:11:32;100566.72;;;8.10;100.00
59757;BME280;45631;51.962;5.974;2023-04-22T06:14:01;100570.75;;;8.16;100.00
59757;BME280;45631;51.962;5.974;2023-04-22T06:16:30;100578.22;;;8.22;100.00
59757;BME280;45631;51.962;5.974;2023-04-22T06:18:58;100580.19;;;8.33;100.00
59757;BME280;45631;51.962;5.974;2023-04-22T06:21:29;100578.97;;;8.38;100.00
59757;BME280;45631;51.962;5.974;2023-04-22T06:23:58;100585.72;;;8.42;100.00
59757;BME280;45631;51.962;5.974;2023-04-22T06:26:27;100577.63;;;8.47;100.00
59757;BME280;45631;51.962;5.974;2023-04-22T06:28:55;100575.59;;;8.52;100.00
59757;BME280;45631;51.962;5.974;2023-04-22T06:31:25;100575.97;;;8.60;100.00
59757;BME280;45631;51.962;5.974;2023-04-22T06:33:57;100576.59;;;8.64;100.00
59757;BME280;45631;51.962;5.974;2023-04-22T06:36:26;100576.34;;;8.69;100.00
59757;BME280;45631;51.962;5.974;2023-04-22T06:38:56;100575.31;;;8.71;100.00
59757;BME280;45631;51.962;5.974;2023-04-22T06:41:24;100575.09;;;8.74;100.00
59757;BME280;45631;51.962;5.974;2023-04-22T06:43:52;100565.25;;;8.78;100.00
59757;BME280;45631;51.962;5.974;2023-04-22T06:46:23;100557.94;;;8.83;100.00
59757;BME280;45631;51.962;5.974;2023-04-22T06:48:51;100559.06;;;8.93;100.00
59757;BME280;45631;51.962;5.974;2023-04-22T06:51:21;100561.94;;;9.03;100.00
59757;BME280;45631;51.962;5.974;2023-04-22T06:53:49;100554.34;;;9.13;100.00
59757;BME280;45631;51.962;5.974;2023-04-22T06:56:17;100552.81;;;9.23;100.00
59757;BME280;45631;51.962;5.974;2023-04-22T06:58:45;100548.66;;;9.34;100.00
59757;BME280;45631;51.962;5.974;2023-04-22T07:01:13;100547.94;;;9.44;100.00
59757;BME280;45631;51.962;5.974;2023-04-22T07:03:41;100540.66;;;9.62;100.00
59757;BME280;45631;51.962;5.974;2023-04-22T07:06:10;100543.44;;;9.74;100.00
59757;BME280;45631;51.962;5.974;2023-04-22T07:08:39;100546.16;;;9.85;100.00
59757;BME280;45631;51.962;5.974;2023-04-22T07:11:08;100552.81;;;10.04;100.00
59757;BME280;45631;51.962;5.974;2023-04-22T07:13:39;100556.19;;;10.19;100.00
59757;BME280;45631;51.962;5.974;2023-04-22T07:16:07;100543.63;;;10.37;100.00
59757;BME280;45631;51.962;5.974;2023-04-22T07:18:36;100539.31;;;10.48;100.00
59757;BME280;45631;51.962;5.974;2023-04-22T07:21:05;100536.63;;;10.61;100.00
59757;BME280;45631;51.962;5.974;2023-04-22T07:23:34;100537.88;;;10.81;100.00
59757;BME280;45631;51.962;5.974;2023-04-22T07:26:06;100526.25;;;10.97;100.00
59757;BME280;45631;51.962;5.974;2023-04-22T07:28:34;100527.31;;;11.19;100.00
59757;BME280;45631;51.962;5.974;2023-04-22T07:31:02;100523.16;;;11.27;100.00
59757;BME280;45631;51.962;5.974;2023-04-22T07:33:30;100520.16;;;11.45;100.00
59757;BME280;45631;51.962;5.974;2023-04-22T07:35:58;100513.53;;;11.63;100.00
59757;BME280;45631;51.962;5.974;2023-04-22T07:38:27;100517.88;;;11.87;100.00
59757;BME280;45631;51.962;5.974;2023-04-22T07:40:55;100518.09;;;12.08;100.00
59757;BME280;45631;51.962;5.974;2023-04-22T07:43:24;100513.19;;;12.26;100.00
59757;BME280;45631;51.962;5.974;2023-04-22T07:45:52;100517.88;;;12.45;100.00
59757;BME280;45631;51.962;5.974;2023-04-22T07:48:21;100518.94;;;12.65;100.00
59757;BME280;45631;51.962;5.974;2023-04-22T07:50:49;100517.94;;;12.89;100.00
59757;BME280;45631;51.962;5.974;2023-04-22T07:53:17;100521.75;;;13.08;100.00
59757;BME280;45631;51.962;5.974;2023-04-22T07:55:46;100535.13;;;13.27;100.00
59757;BME280;45631;51.962;5.974;2023-04-22T07:58:15;100532.97;;;13.32;100.00
59757;BME280;45631;51.962;5.974;2023-04-22T08:00:45;100532.25;;;13.42;100.00
59757;BME280;45631;51.962;5.974;2023-04-22T08:03:13;100533.34;;;13.60;100.00
59757;BME280;45631;51.962;5.974;2023-04-22T08:05:42;100523.63;;;13.82;100.00
59757;BME280;45631;51.962;5.974;2023-04-22T08:08:10;100530.03;;;14.00;100.00
59757;BME280;45631;51.962;5.974;2023-04-22T08:10:38;100530.66;;;14.14;100.00
59757;BME280;45631;51.962;5.974;2023-04-22T08:13:06;100534.63;;;14.29;100.00
59757;BME280;45631;51.962;5.974;2023-04-22T08:15:34;100527.75;;;14.48;100.00
59757;BME280;45631;51.962;5.974;2023-04-22T08:18:04;100540.25;;;14.67;100.00
59757;BME280;45631;51.962;5.974;2023-04-22T08:20:32;100547.53;;;14.84;100.00
59757;BME280;45631;51.962;5.974;2023-04-22T08:23:00;100534.91;;;15.08;100.00
59757;BME280;45631;51.962;5.974;2023-04-22T08:25:28;100532.84;;;15.21;100.00
59757;BME280;45631;51.962;5.974;2023-04-22T08:27:57;100521.44;;;15.40;100.00
59757;BME280;45631;51.962;5.974;2023-04-22T08:30:25;100511.66;;;15.60;100.00
59757;BME280;45631;51.962;5.974;2023-04-22T08:32:53;100507.19;;;15.70;100.00
59757;BME280;45631;51.962;5.974;2023-04-22T08:35:23;100506.63;;;15.47;100.00
59757;BME280;45631;51.962;5.974;2023-04-22T08:37:53;100498.69;;;15.67;100.00
59757;BME280;45631;51.962;5.974;2023-04-22T08:40:21;100505.53;;;15.89;100.00
59757;BME280;45631;51.962;5.974;2023-04-22T08:42:50;100495.44;;;16.02;100.00
59757;BME280;45631;51.962;5.974;2023-04-22T08:45:19;100481.94;;;16.23;100.00
59757;BME280;45631;51.962;5.974;2023-04-22T08:47:48;100483.97;;;16.12;100.00
59757;BME280;45631;51.962;5.974;2023-04-22T08:50:19;100476.09;;;16.30;100.00
59757;BME280;45631;51.962;5.974;2023-04-22T08:52:49;100475.16;;;16.49;100.00
59757;BME280;45631;51.962;5.974;2023-04-22T08:55:18;100476.00;;;16.67;100.00
59757;BME280;45631;51.962;5.974;2023-04-22T08:57:46;100471.88;;;16.83;100.00
59757;BME280;45631;51.962;5.974;2023-04-22T09:00:18;100480.69;;;16.83;100.00
59757;BME280;45631;51.962;5.974;2023-04-22T09:02:47;100478.88;;;16.84;100.00
59757;BME280;45631;51.962;5.974;2023-04-22T09:05:17;100484.38;;;17.00;100.00
59757;BME280;45631;51.962;5.974;2023-04-22T09:07:48;100474.31;;;17.22;100.00
59757;BME280;45631;51.962;5.974;2023-04-22T09:10:17;100477.69;;;17.32;100.00
59757;BME280;45631;51.962;5.974;2023-04-22T09:12:46;100480.25;;;17.60;100.00
59757;BME280;45631;51.962;5.974;2023-04-22T09:15:15;100475.47;;;17.90;100.00
59757;BME280;45631;51.962;5.974;2023-04-22T09:17:44;100461.81;;;18.11;100.00
59757;BME280;45631;51.962;5.974;2023-04-22T09:20:12;100459.00;;;18.13;100.00
59757;BME280;45631;51.962;5.974;2023-04-22T09:22:43;100470.63;;;18.12;100.00
59757;BME280;45631;51.962;5.974;2023-04-22T09:25:16;100459.00;;;18.13;100.00
59757;BME280;45631;51.962;5.974;2023-04-22T09:27:47;100450.72;;;18.24;100.00
59757;BME280;45631;51.962;5.974;2023-04-22T09:30:17;100438.13;;;18.34;100.00
59757;BME280;45631;51.962;5.974;2023-04-22T09:32:53;100446.38;;;18.57;100.00
59757;BME280;45631;51.962;5.974;2023-04-22T09:35:25;100443.41;;;18.77;100.00
59757;BME280;45631;51.962;5.974;2023-04-22T09:37:54;100445.16;;;19.03;100.00
59757;BME280;45631;51.962;5.974;2023-04-22T09:40:24;100435.00;;;19.23;100.00
59757;BME280;45631;51.962;5.974;2023-04-22T09:42:54;100429.69;;;19.06;100.00
59757;BME280;45631;51.962;5.974;2023-04-22T09:45:27;100425.84;;;19.01;100.00
59757;BME280;45631;51.962;5.974;2023-04-22T09:47:56;100428.69;;;19.07;100.00
59757;BME280;45631;51.962;5.974;2023-04-22T09:50:27;100421.69;;;19.15;100.00
59757;BME280;45631;51.962;5.974;2023-04-22T09:52:57;100424.50;;;19.38;100.00
59757;BME280;45631;51.962;5.974;2023-04-22T09:55:29;100431.31;;;19.57;100.00
59757;BME280;45631;51.962;5.974;2023-04-22T09:58:04;100427.50;;;19.43;100.00
59757;BME280;45631;51.962;5.974;2023-04-22T10:00:34;100434.19;;;19.47;100.00
59757;BME280;45631;51.962;5.974;2023-04-22T10:03:04;100441.00;;;19.58;100.00
59757;BME280;45631;51.962;5.974;2023-04-22T10:05:38;100428.66;;;19.65;100.00
59757;BME280;45631;51.962;5.974;2023-04-22T10:08:08;100430.50;;;19.65;100.00
59757;BME280;45631;51.962;5.974;2023-04-22T10:10:39;100437.44;;;19.90;100.00
59757;BME280;45631;51.962;5.974;2023-04-22T10:13:10;100434.31;;;19.87;100.00
59757;BME280;45631;51.962;5.974;2023-04-22T10:15:41;100433.09;;;19.98;100.00
59757;BME280;45631;51.962;5.974;2023-04-22T10:18:11;100431.31;;;19.82;100.00
59757;BME280;45631;51.962;5.974;2023-04-22T10:20:41;100419.16;;;20.19;100.00
59757;BME280;45631;51.962;5.974;2023-04-22T10:23:13;100415.22;;;20.06;100.00
59757;BME280;45631;51.962;5.974;2023-04-22T10:25:46;100417.31;;;20.27;100.00
59757;BME280;45631;51.962;5.974;2023-04-22T10:28:15;100415.41;;;20.36;100.00
59757;BME280;45631;51.962;5.974;2023-04-22T10:30:44;100424.31;;;20.68;100.00
59757;BME280;45631;51.962;5.974;2023-04-22T10:33:37;100414.56;;;20.75;100.00
59757;BME280;45631;51.962;5.974;2023-04-22T10:36:08;100418.72;;;20.78;100.00
59757;BME280;45631;51.962;5.974;2023-04-22T10:38:37;100410.63;;;20.63;100.00
59757;BME280;45631;51.962;5.974;2023-04-22T10:41:12;100412.41;;;20.71;100.00
59757;BME280;45631;51.962;5.974;2023-04-22T10:43:42;100420.31;;;20.87;100.00
59757;BME280;45631;51.962;5.974;2023-04-22T10:49:30;100431.91;;;21.26;100.00
59757;BME280;45631;51.962;5.974;2023-04-22T10:52:01;100438.44;;;21.00;100.00
59757;BME280;45631;51.962;5.974;2023-04-22T10:54:55;100435.94;;;21.22;100.00
59757;BME280;45631;51.962;5.974;2023-04-22T10:57:30;100423.88;;;21.64;99.91
59757;BME280;45631;51.962;5.974;2023-04-22T11:00:26;100419.50;;;21.48;97.71
59757;BME280;45631;51.962;5.974;2023-04-22T11:03:13;100412.34;;;22.08;96.36
59757;BME280;45631;51.962;5.974;2023-04-22T11:05:43;100414.56;;;22.35;93.73
59757;BME280;45631;51.962;5.974;2023-04-22T11:08:18;100402.88;;;22.57;93.06
59757;BME280;45631;51.962;5.974;2023-04-22T11:10:49;100417.50;;;22.40;92.48
59757;BME280;45631;51.962;5.974;2023-04-22T11:13:22;100419.72;;;22.21;92.27
59757;BME280;45631;51.962;5.974;2023-04-22T11:15:53;100424.31;;;21.53;99.21
59757;BME280;45631;51.962;5.974;2023-04-22T11:18:24;100417.97;;;21.69;98.73
59757;BME280;45631;51.962;5.974;2023-04-22T11:20:53;100416.22;;;21.23;98.77
59757;BME280;45631;51.962;5.974;2023-04-22T11:23:25;100416.22;;;21.23;99.47
59757;BME280;45631;51.962;5.974;2023-04-22T11:25:54;100420.59;;;21.16;96.68
59757;BME280;45631;51.962;5.974;2023-04-22T11:28:25;100423.28;;;21.16;97.64
59757;BME280;45631;51.962;5.974;2023-04-22T11:31:00;100411.22;;;20.73;100.00
59757;BME280;45631;51.962;5.974;2023-04-22T11:33:29;100410.53;;;20.80;99.69
59757;BME280;45631;51.962;5.974;2023-04-22T11:35:58;100412.03;;;21.05;99.77
59757;BME280;45631;51.962;5.974;2023-04-22T11:38:26;100409.59;;;20.96;95.84
59757;BME280;45631;51.962;5.974;2023-04-22T11:40:55;100408.75;;;20.72;97.38
59757;BME280;45631;51.962;5.974;2023-04-22T11:43:27;100407.28;;;20.61;97.23
59757;BME280;45631;51.962;5.974;2023-04-22T11:45:56;100412.16;;;20.57;98.72
59757;BME280;45631;51.962;5.974;2023-04-22T11:48:24;100401.63;;;20.56;99.51
59757;BME280;45631;51.962;5.974;2023-04-22T11:51:06;100391.84;;;20.80;99.54
59757;BME280;45631;51.962;5.974;2023-04-22T11:53:35;100394.69;;;20.78;97.77
59757;BME280;45631;51.962;5.974;2023-04-22T11:56:07;100398.31;;;20.54;97.40
59757;BME280;45631;51.962;5.974;2023-04-22T11:58:38;100398.75;;;20.66;99.60
59757;BME280;45631;51.962;5.974;2023-04-22T12:01:11;100393.06;;;20.37;100.00
59757;BME280;45631;51.962;5.974;2023-04-22T12:03:39;100391.97;;;20.23;100.00
59757;BME280;45631;51.962;5.974;2023-04-22T12:06:08;100385.53;;;20.01;100.00
59757;BME280;45631;51.962;5.974;2023-04-22T12:08:38;100382.00;;;20.09;100.00
59757;BME280;45631;51.962;5.974;2023-04-22T12:11:10;100388.88;;;20.03;100.00
59757;BME280;45631;51.962;5.974;2023-04-22T12:13:43;100398.75;;;19.86;100.00
59757;BME280;45631;51.962;5.974;2023-04-22T12:16:16;100391.94;;;19.92;100.00
59757;BME280;45631;51.962;5.974;2023-04-22T12:18:48;100392.09;;;19.74;100.00
59757;BME280;45631;51.962;5.974;2023-04-22T12:21:18;100384.44;;;19.87;100.00
59757;BME280;45631;51.962;5.974;2023-04-22T12:23:49;100383.31;;;19.65;100.00
59757;BME280;45631;51.962;5.974;2023-04-22T12:26:19;100379.31;;;19.61;100.00
59757;BME280;45631;51.962;5.974;2023-04-22T12:28:57;100383.31;;;19.65;100.00
59757;BME280;45631;51.962;5.974;2023-04-22T12:31:25;100382.03;;;19.28;100.00
59757;BME280;45631;51.962;5.974;2023-04-22T12:33:57;100385.66;;;19.43;100.00
59757;BME280;45631;51.962;5.974;2023-04-22T12:36:26;100383.16;;;19.50;100.00
59757;BME280;45631;51.962;5.974;2023-04-22T12:38:57;100381.84;;;19.46;100.00
59757;BME280;45631;51.962;5.974;2023-04-22T12:41:25;100382.00;;;19.53;100.00
59757;BME280;45631;51.962;5.974;2023-04-22T12:43:55;100384.69;;;19.45;100.00
59757;BME280;45631;51.962;5.974;2023-04-22T12:46:23;100384.84;;;19.51;100.00
59757;BME280;45631;51.962;5.974;2023-04-22T12:48:51;100380.00;;;19.47;100.00
59757;BME280;45631;51.962;5.974;2023-04-22T12:51:19;100381.88;;;19.30;100.00
59757;BME280;45631;51.962;5.974;2023-04-22T12:53:48;100380.38;;;19.19;100.00
59757;BME280;45631;51.962;5.974;2023-04-22T12:56:16;100376.38;;;19.06;100.00
59757;BME280;45631;51.962;5.974;2023-04-22T12:58:44;100376.03;;;19.01;100.00
59757;BME280;45631;51.962;5.974;2023-04-22T13:01:14;100384.22;;;19.08;100.00